Archival Weather

NSFA McMurdo Sound

NSFA McMurdo Sound, Antarctica (NZCM)

Report from: Friday, September 23, 2022 2:23 PM UTC
Current time: Sunday, December 4, 2022 12:16 PM UTC

Current weather
Weather history
Weather forecast

Present weatherHaze
Temperature-18.8°C (-1.8°F)
Wind chill-27.5°C (-17.5°F)
Dew point-23.6°C (-10.5°F)
Winds 8 kts (4.1 m/s, 9.2 mph) East (100°)
Visibility1.6 mi. (2.6 km)
Clouds Ceiling: Overcast 1,200 ft. (366 m)
Altimeter28.63 in.Hg (970 mB)
Precip. events Snow ended 1:57 PM
Snow began 1:59 PM
Snow ended 2:23 PM
Relative humidity66 %
Density altitude-2,752 ft. (-839 m)
Sea-level pressure107.0 kPa (1070 mB, 31.60 in.Hg)
Remarks Fully automated report
System requires maintenance
Special weather observation
Automated weather observing station with precipitation discriminator
Flight conditions Instrument Meteorological Conditions
Raw dataSPECI NZCM 231423Z AUTO 10008KT 2600 HZ OVC012 M19/M24 A2863 RMK AO2 WSHFT 1414 SNE1357B1359E1423 SLP702 T11881236 $
An error has occurred. This application may no longer respond until reloaded. Reload 🗙